Pedro R. Fernandez, Argentina
Current Conditions -  °F | °C
As of 8:00 PM on Saturday 20 Dec 2014 (Local Time) from SARC Reporting Station
Broken Clouds Broken Clouds  
Wind Chill: 90°   Ceiling: 2500
Heat Index: 100°   Visibility: 6mi
Dew Point: 75°   Wind: 5mph
Humidity: 62%   Direction: 30°NNE
Pressure: 29.41"   Gusts: NA
Location:  28.75°S, 58.65°W
Report Text: SARC 202300Z 03004KT 010V070 9999 BKN025SCT200 32/24 Q0996
Loading
Personal Weather Stations






























Interactive Weather Map New forecast layout! Learn more

10-Day Weather Forecast

Advertisements
Track Severe Weather on mobile